Time;durP1;ratioP1;P1;durP2;ratioP2;P2;SDS_P1;SDS_P2;PMS_P1;PMS_P2;Temp;Humidity;BMP_temperature;BMP_pressure;BME280_temperature;BME280_humidity;BME280_pressure;Samples;Min_cycle;Max_cycle;Signal;HPM_P1;HPM_P2
2023/07/21 00:00:01;;;;;;;;;;;16.50;99.90;;;;;;7338297;19;109869;-71
2023/07/21 00:02:38;;;;;;;;;;;16.50;99.90;;;;;;7333991;19;108774;-72
2023/07/21 00:05:05;;;;;;;;;;;16.30;99.90;;;;;;7330491;19;114355;-69
2023/07/21 00:07:35;;;;;;;;;;;16.20;99.90;;;;;;7334005;19;109199;-69
2023/07/21 00:10:07;;;;;;;;;;;16.10;99.90;;;;;;7334662;19;108989;-69
2023/07/21 00:12:35;;;;;;;;;;;16.00;99.90;;;;;;7332689;19;109842;-66
2023/07/21 00:15:02;;;;;;;;;;;16.00;99.90;;;;;;7335707;19;110035;-69
2023/07/21 00:17:30;;;;;;;;;;;16.00;99.90;;;;;;7335197;19;108862;-70
2023/07/21 00:20:04;;;;;;;;;;;16.00;99.90;;;;;;7335465;19;109290;-63
2023/07/21 00:22:31;;;;;;;;;;;16.00;99.90;;;;;;7338106;19;108878;-64
2023/07/21 00:25:00;;;;;;;;;;;16.00;99.90;;;;;;7334701;19;109246;-64
2023/07/21 00:27:27;;;;;;;;;;;16.00;99.90;;;;;;7337104;19;108582;-66
2023/07/21 00:29:55;;;;;;;;;;;15.90;99.90;;;;;;7331725;19;110420;-63
2023/07/21 00:32:22;;;;;;;;;;;15.90;99.90;;;;;;7336059;19;109520;-64
2023/07/21 00:34:52;;;;;;;;;;;15.90;99.90;;;;;;7329514;19;109016;-63
2023/07/21 00:37:19;;;;;;;;;;;16.00;99.90;;;;;;7338893;19;108550;-63
2023/07/21 00:39:47;;;;;;;;;;;16.00;99.90;;;;;;7332108;19;109174;-63
2023/07/21 00:42:14;;;;;;;;;;;16.00;99.90;;;;;;7341585;19;108909;-63
2023/07/21 00:44:42;;;;;;;;;;;16.00;99.90;;;;;;7332742;19;110184;-63
2023/07/21 00:47:09;;;;;;;;;;;15.90;99.90;;;;;;7334681;19;109863;-63
2023/07/21 00:49:37;;;;;;;;;;;15.70;99.90;;;;;;7336501;19;109617;-63
2023/07/21 00:52:04;;;;;;;;;;;15.70;99.90;;;;;;7336645;19;109415;-63
2023/07/21 00:54:32;;;;;;;;;;;15.70;99.90;;;;;;7337502;19;109596;-63
2023/07/21 00:56:59;;;;;;;;;;;15.80;99.90;;;;;;7331851;19;110090;-63
2023/07/21 00:59:28;;;;;;;;;;;15.80;99.90;;;;;;7336943;19;110305;-63
2023/07/21 01:01:56;;;;;;;;;;;15.90;99.90;;;;;;7337182;19;112656;-63
2023/07/21 01:04:23;;;;;;;;;;;15.90;99.90;;;;;;7334068;19;110055;-63
2023/07/21 01:06:50;;;;;;;;;;;15.90;99.90;;;;;;7335176;19;109460;-63
2023/07/21 01:09:19;;;;;;;;;;;15.90;99.90;;;;;;7328392;19;108528;-63
2023/07/21 01:11:46;;;;;;;;;;;15.90;99.90;;;;;;7332775;19;109885;-63
2023/07/21 01:14:13;;;;;;;;;;;15.80;99.90;;;;;;7332171;19;108656;-63
2023/07/21 01:16:43;;;;;;;;;;;15.70;99.90;;;;;;7332495;19;108686;-63
2023/07/21 01:19:14;;;;;;;;;;;15.70;99.90;;;;;;7336717;19;109543;-63
2023/07/21 01:21:46;;;;;;;;;;;15.70;99.90;;;;;;7333505;19;109315;-63
2023/07/21 01:24:29;;;;;;;;;;;15.60;99.90;;;;;;7331819;19;109143;-63
2023/07/21 01:26:56;;;;;;;;;;;15.60;99.90;;;;;;7339570;19;109269;-63
2023/07/21 01:29:23;;;;;;;;;;;15.50;99.90;;;;;;7328024;19;110754;-65
2023/07/21 01:31:52;;;;;;;;;;;15.40;99.90;;;;;;7333952;19;109236;-63
2023/07/21 01:34:19;;;;;;;;;;;15.40;99.90;;;;;;7329337;19;108782;-63
2023/07/21 01:36:47;;;;;;;;;;;15.40;99.90;;;;;;7333920;19;111059;-63
2023/07/21 01:39:14;;;;;;;;;;;15.50;99.90;;;;;;7332502;19;110257;-63
2023/07/21 01:41:42;;;;;;;;;;;15.50;99.90;;;;;;7332275;19;113064;-62
2023/07/21 01:44:09;;;;;;;;;;;15.50;99.90;;;;;;7333872;19;108808;-63
2023/07/21 01:46:36;;;;;;;;;;;15.50;99.90;;;;;;7331406;19;109559;-63
2023/07/21 01:49:03;;;;;;;;;;;15.50;99.90;;;;;;7338180;19;108619;-63
2023/07/21 01:51:31;;;;;;;;;;;15.50;99.90;;;;;;7331631;19;109130;-63
2023/07/21 01:54:00;;;;;;;;;;;15.40;99.90;;;;;;7334775;19;109809;-63
2023/07/21 01:56:30;;;;;;;;;;;15.30;99.90;;;;;;7332154;19;108846;-63
2023/07/21 01:59:00;;;;;;;;;;;15.30;99.90;;;;;;7326114;19;109816;-63
2023/07/21 02:01:28;;;;;;;;;;;15.20;99.90;;;;;;7332180;19;109711;-63
2023/07/21 02:03:55;;;;;;;;;;;15.20;99.90;;;;;;7330815;19;113335;-63
2023/07/21 02:06:23;;;;;;;;;;;15.10;99.90;;;;;;7329954;19;110774;-63
2023/07/21 02:08:50;;;;;;;;;;;14.90;99.90;;;;;;7333882;19;110292;-63
2023/07/21 02:11:19;;;;;;;;;;;14.90;99.90;;;;;;7336792;19;108540;-63
2023/07/21 02:13:46;;;;;;;;;;;15.00;99.90;;;;;;7331134;19;109462;-63
2023/07/21 02:16:13;;;;;;;;;;;15.00;99.90;;;;;;7333280;19;108989;-63
2023/07/21 02:18:42;;;;;;;;;;;15.00;99.90;;;;;;7329611;19;110482;-63
2023/07/21 02:21:09;;;;;;;;;;;15.00;99.90;;;;;;7331161;19;109089;-63
2023/07/21 02:23:36;;;;;;;;;;;15.00;99.90;;;;;;7332454;19;109293;-63
2023/07/21 02:26:03;;;;;;;;;;;15.00;99.90;;;;;;7331707;19;110352;-63
2023/07/21 02:28:30;;;;;;;;;;;15.00;99.90;;;;;;7328345;19;109186;-63
2023/07/21 02:31:02;;;;;;;;;;;14.90;99.90;;;;;;7335667;19;109746;-62
2023/07/21 02:33:32;;;;;;;;;;;15.00;99.90;;;;;;7329458;19;108453;-62
2023/07/21 02:36:00;;;;;;;;;;;14.90;99.90;;;;;;7331755;19;109038;-62
2023/07/21 02:38:27;;;;;;;;;;;14.90;99.90;;;;;;7330505;19;110387;-62
2023/07/21 02:41:04;;;;;;;;;;;14.90;99.90;;;;;;7329710;19;109598;-62
2023/07/21 02:43:34;;;;;;;;;;;14.80;99.90;;;;;;7333263;19;109263;-63
2023/07/21 02:46:02;;;;;;;;;;;14.90;99.90;;;;;;7330786;19;109249;-62
2023/07/21 02:48:29;;;;;;;;;;;14.90;99.90;;;;;;7331501;19;108764;-63
2023/07/21 02:50:57;;;;;;;;;;;14.80;99.90;;;;;;7330443;19;109212;-62
2023/07/21 02:53:25;;;;;;;;;;;14.80;99.90;;;;;;7332552;19;109502;-62
2023/07/21 02:55:52;;;;;;;;;;;14.80;99.90;;;;;;7329363;19;108658;-63
2023/07/21 02:58:20;;;;;;;;;;;14.80;99.90;;;;;;7327986;19;109095;-63
2023/07/21 03:00:48;;;;;;;;;;;14.80;99.90;;;;;;7331643;19;108430;-63
2023/07/21 03:03:15;;;;;;;;;;;14.80;99.90;;;;;;7327692;19;109762;-63
2023/07/21 03:05:42;;;;;;;;;;;14.80;99.90;;;;;;7331910;19;110196;-62
2023/07/21 03:08:10;;;;;;;;;;;14.70;99.90;;;;;;7330750;19;108981;-62
2023/07/21 03:10:37;;;;;;;;;;;14.70;99.90;;;;;;7331598;19;108481;-63
2023/07/21 03:13:04;;;;;;;;;;;14.70;99.90;;;;;;7337887;19;109455;-62
2023/07/21 03:15:31;;;;;;;;;;;14.70;99.90;;;;;;7341542;19;111853;-63
2023/07/21 03:17:58;;;;;;;;;;;14.70;99.90;;;;;;7338246;19;109098;-62
2023/07/21 03:20:26;;;;;;;;;;;14.70;99.90;;;;;;7336788;19;110604;-62
2023/07/21 03:22:53;;;;;;;;;;;14.70;99.90;;;;;;7340194;19;110639;-62
2023/07/21 03:25:20;;;;;;;;;;;14.40;99.90;;;;;;7334668;19;109141;-63
2023/07/21 03:27:47;;;;;;;;;;;14.30;99.90;;;;;;7335409;19;109525;-62
2023/07/21 03:30:14;;;;;;;;;;;14.30;99.90;;;;;;7335447;19;110734;-63
2023/07/21 03:32:45;;;;;;;;;;;14.40;99.90;;;;;;7334783;19;109091;-62
2023/07/21 03:35:12;;;;;;;;;;;14.30;99.90;;;;;;7334659;19;110639;-63
2023/07/21 03:37:39;;;;;;;;;;;14.10;99.90;;;;;;7341341;19;109277;-62
2023/07/21 03:40:07;;;;;;;;;;;14.10;99.90;;;;;;7335318;19;108868;-62
2023/07/21 03:42:35;;;;;;;;;;;14.20;99.90;;;;;;7336970;19;108851;-62
2023/07/21 03:45:05;;;;;;;;;;;14.30;99.90;;;;;;7331868;19;110319;-62
2023/07/21 03:47:33;;;;;;;;;;;14.40;99.90;;;;;;7336571;19;108760;-62
2023/07/21 03:50:00;;;;;;;;;;;14.40;99.90;;;;;;7333158;19;109720;-62
2023/07/21 03:52:27;;;;;;;;;;;14.40;99.90;;;;;;7337324;19;109698;-62
2023/07/21 03:54:54;;;;;;;;;;;14.30;99.90;;;;;;7337665;19;108591;-62
2023/07/21 03:57:22;;;;;;;;;;;14.20;99.90;;;;;;7334647;19;108338;-62
2023/07/21 03:59:49;;;;;;;;;;;14.20;99.90;;;;;;7340966;19;109378;-62
2023/07/21 04:02:16;;;;;;;;;;;14.20;99.90;;;;;;7336126;19;108642;-63
2023/07/21 04:04:45;;;;;;;;;;;14.20;99.90;;;;;;7333104;19;109988;-62
2023/07/21 04:07:12;;;;;;;;;;;14.20;99.90;;;;;;7337715;19;108641;-63
2023/07/21 04:09:40;;;;;;;;;;;14.20;99.90;;;;;;7335939;19;109493;-62
2023/07/21 04:12:07;;;;;;;;;;;14.20;99.90;;;;;;7336029;19;110648;-62
2023/07/21 04:14:34;;;;;;;;;;;14.10;99.90;;;;;;7333428;19;109062;-62
2023/07/21 04:17:01;;;;;;;;;;;14.10;99.90;;;;;;7334085;19;110095;-62
2023/07/21 04:19:28;;;;;;;;;;;14.00;99.90;;;;;;7334549;19;109976;-62
2023/07/21 04:21:55;;;;;;;;;;;14.10;99.90;;;;;;7340665;19;108765;-63
2023/07/21 04:24:23;;;;;;;;;;;14.00;99.90;;;;;;7332647;19;109818;-63
2023/07/21 04:26:50;;;;;;;;;;;13.90;99.90;;;;;;7334473;19;109615;-62
2023/07/21 04:29:17;;;;;;;;;;;13.80;99.90;;;;;;7331159;19;110172;-62
2023/07/21 04:32:01;;;;;;;;;;;13.80;99.90;;;;;;7331426;19;109114;-62
2023/07/21 04:34:30;;;;;;;;;;;13.90;99.90;;;;;;7335945;19;108422;-62
2023/07/21 04:36:57;;;;;;;;;;;14.00;99.90;;;;;;7330741;19;110456;-62
2023/07/21 04:39:24;;;;;;;;;;;14.10;99.90;;;;;;7335048;19;109621;-62
2023/07/21 04:41:52;;;;;;;;;;;14.20;99.90;;;;;;7338405;19;109098;-62
2023/07/21 04:44:19;;;;;;;;;;;14.10;99.90;;;;;;7334984;19;109161;-62
2023/07/21 04:46:47;;;;;;;;;;;14.10;99.90;;;;;;7332832;19;108420;-62
2023/07/21 04:49:14;;;;;;;;;;;14.00;99.90;;;;;;7335289;19;108894;-62
2023/07/21 04:51:41;;;;;;;;;;;14.00;99.90;;;;;;7330855;19;110597;-62
2023/07/21 04:54:08;;;;;;;;;;;14.00;99.90;;;;;;7338325;19;108322;-62
2023/07/21 04:56:35;;;;;;;;;;;14.10;99.90;;;;;;7336092;19;109293;-63
2023/07/21 04:59:03;;;;;;;;;;;14.20;99.90;;;;;;7334089;19;109966;-63
2023/07/21 05:01:33;;;;;;;;;;;14.30;99.90;;;;;;7333942;19;108818;-63
2023/07/21 05:04:00;;;;;;;;;;;14.30;99.90;;;;;;7340683;19;110052;-63
2023/07/21 05:06:28;;;;;;;;;;;14.40;99.90;;;;;;7331668;19;108360;-63
2023/07/21 05:08:55;;;;;;;;;;;14.40;99.90;;;;;;7335502;19;109497;-62
2023/07/21 05:11:22;;;;;;;;;;;14.50;99.90;;;;;;7330135;19;110036;-63
2023/07/21 05:13:51;;;;;;;;;;;14.50;99.90;;;;;;7337465;19;110558;-62
2023/07/21 05:16:18;;;;;;;;;;;14.60;99.90;;;;;;7332630;19;109418;-62
2023/07/21 05:18:46;;;;;;;;;;;14.70;99.90;;;;;;7331645;19;110093;-63
2023/07/21 05:21:13;;;;;;;;;;;14.70;99.90;;;;;;7334446;19;109591;-63
2023/07/21 05:23:41;;;;;;;;;;;14.70;99.90;;;;;;7334960;19;109600;-63
2023/07/21 05:26:09;;;;;;;;;;;14.80;99.90;;;;;;7335318;19;109775;-65
2023/07/21 05:28:36;;;;;;;;;;;14.80;99.90;;;;;;7334776;19;108610;-63
2023/07/21 05:31:03;;;;;;;;;;;14.90;99.90;;;;;;7328039;19;110133;-63
2023/07/21 05:33:31;;;;;;;;;;;14.90;99.90;;;;;;7332048;19;110809;-63
2023/07/21 05:36:05;;;;;;;;;;;15.00;99.90;;;;;;7332872;19;108786;-65
2023/07/21 05:38:33;;;;;;;;;;;15.10;99.90;;;;;;7333095;19;110395;-64
2023/07/21 05:41:00;;;;;;;;;;;15.20;99.90;;;;;;7335238;19;109006;-64
2023/07/21 05:43:27;;;;;;;;;;;15.20;99.90;;;;;;7333009;19;108883;-63
2023/07/21 05:45:55;;;;;;;;;;;15.20;99.90;;;;;;7333906;19;109158;-63
2023/07/21 05:48:24;;;;;;;;;;;15.30;99.90;;;;;;7337995;19;108946;-63
2023/07/21 05:50:52;;;;;;;;;;;15.40;99.90;;;;;;7331592;19;110168;-63
2023/07/21 05:53:20;;;;;;;;;;;15.40;99.90;;;;;;7330239;19;109512;-63
2023/07/21 05:55:47;;;;;;;;;;;15.40;99.90;;;;;;7334529;19;109120;-63
2023/07/21 05:58:14;;;;;;;;;;;15.50;99.90;;;;;;7328716;19;108852;-64
2023/07/21 06:00:42;;;;;;;;;;;15.50;99.90;;;;;;7332776;19;108695;-64
2023/07/21 06:03:09;;;;;;;;;;;15.60;99.90;;;;;;7330884;19;109447;-63
2023/07/21 06:05:36;;;;;;;;;;;15.70;99.90;;;;;;7331632;19;109581;-64
2023/07/21 06:08:09;;;;;;;;;;;15.70;99.90;;;;;;7332492;19;108409;-63
2023/07/21 06:10:38;;;;;;;;;;;15.80;99.90;;;;;;7340201;19;108797;-66
2023/07/21 06:13:06;;;;;;;;;;;15.90;99.90;;;;;;7334235;19;109792;-64
2023/07/21 06:15:34;;;;;;;;;;;15.90;99.90;;;;;;7330990;19;109523;-70
2023/07/21 06:18:03;;;;;;;;;;;16.00;99.90;;;;;;7330435;19;109845;-72
2023/07/21 06:20:30;;;;;;;;;;;16.10;99.90;;;;;;7333016;19;112551;-71
2023/07/21 06:22:57;;;;;;;;;;;16.10;99.90;;;;;;7330070;19;109721;-72
2023/07/21 06:25:25;;;;;;;;;;;16.20;99.90;;;;;;7333982;19;110171;-64
2023/07/21 06:27:52;;;;;;;;;;;16.20;99.90;;;;;;7338196;19;109759;-66
2023/07/21 06:30:19;;;;;;;;;;;16.30;99.90;;;;;;7340498;19;108420;-69
2023/07/21 06:32:46;;;;;;;;;;;16.40;99.90;;;;;;7345045;19;109288;-66
2023/07/21 06:35:13;;;;;;;;;;;16.50;99.90;;;;;;7338837;19;111405;-63
2023/07/21 06:37:41;;;;;;;;;;;16.60;99.90;;;;;;7339050;19;110181;-65
2023/07/21 06:40:11;;;;;;;;;;;16.60;99.90;;;;;;7338061;19;108552;-62
2023/07/21 06:42:44;;;;;;;;;;;16.70;99.90;;;;;;7343341;19;108660;-62
2023/07/21 06:45:11;;;;;;;;;;;16.80;99.90;;;;;;7337387;19;110922;-64
2023/07/21 06:47:38;;;;;;;;;;;16.90;99.90;;;;;;7338138;19;108943;-64
2023/07/21 06:50:05;;;;;;;;;;;17.00;99.90;;;;;;7338938;19;112209;-64
2023/07/21 06:52:32;;;;;;;;;;;17.20;99.90;;;;;;7341038;19;110035;-64
2023/07/21 06:55:00;;;;;;;;;;;17.30;99.90;;;;;;7337875;19;109337;-64
2023/07/21 06:57:28;;;;;;;;;;;17.40;99.90;;;;;;7337048;19;110234;-64
2023/07/21 06:59:55;;;;;;;;;;;17.60;99.90;;;;;;7337847;19;108951;-64
2023/07/21 07:02:22;;;;;;;;;;;17.70;99.90;;;;;;7335913;19;108745;-64
2023/07/21 07:04:51;;;;;;;;;;;17.80;99.90;;;;;;7336454;19;109119;-64
2023/07/21 07:07:18;;;;;;;;;;;17.90;99.90;;;;;;7338793;19;108911;-64
2023/07/21 07:09:45;;;;;;;;;;;18.00;99.90;;;;;;7336724;19;109381;-64
2023/07/21 07:12:13;;;;;;;;;;;18.10;99.90;;;;;;7332878;19;109485;-64
2023/07/21 07:14:44;;;;;;;;;;;18.20;99.90;;;;;;7341321;19;108295;-70
2023/07/21 07:17:12;;;;;;;;;;;18.40;99.90;;;;;;7335376;19;108929;-65
2023/07/21 07:19:40;;;;;;;;;;;18.50;99.90;;;;;;7338344;19;109660;-65
2023/07/21 07:22:09;;;;;;;;;;;18.70;99.90;;;;;;7340274;19;108639;-67
2023/07/21 07:24:36;;;;;;;;;;;18.80;99.90;;;;;;7336901;19;108836;-69
2023/07/21 07:27:04;;;;;;;;;;;19.00;99.90;;;;;;7338391;19;110671;-66
2023/07/21 07:29:32;;;;;;;;;;;19.10;99.90;;;;;;7336942;19;109260;-71
2023/07/21 07:31:59;;;;;;;;;;;19.20;99.90;;;;;;7332680;19;111416;-71
2023/07/21 07:34:26;;;;;;;;;;;19.30;99.90;;;;;;7337102;19;108950;-65
2023/07/21 07:36:54;;;;;;;;;;;19.40;99.90;;;;;;7338087;19;111133;-69
2023/07/21 07:39:21;;;;;;;;;;;19.40;99.90;;;;;;7332772;19;108957;-65
2023/07/21 07:41:51;;;;;;;;;;;19.60;99.90;;;;;;7333521;19;110345;-65
2023/07/21 07:44:19;;;;;;;;;;;19.70;99.90;;;;;;7333621;19;109417;-74
2023/07/21 07:46:46;;;;;;;;;;;19.80;99.90;;;;;;7335288;19;108453;-71
2023/07/21 07:49:13;;;;;;;;;;;19.90;99.90;;;;;;7335135;19;108983;-66
2023/07/21 07:51:40;;;;;;;;;;;20.10;99.90;;;;;;7338216;19;110487;-70
2023/07/21 07:54:08;;;;;;;;;;;20.20;99.90;;;;;;7338353;19;108722;-67
2023/07/21 07:56:35;;;;;;;;;;;20.20;99.90;;;;;;7336014;19;108696;-72
2023/07/21 07:59:02;;;;;;;;;;;20.30;99.90;;;;;;7343858;19;110176;-70
2023/07/21 08:01:29;;;;;;;;;;;20.40;99.90;;;;;;7336435;19;110837;-70
2023/07/21 08:03:56;;;;;;;;;;;20.50;99.90;;;;;;7336620;19;109080;-69
2023/07/21 08:06:24;;;;;;;;;;;20.60;99.90;;;;;;7333644;19;109053;-67
2023/07/21 08:08:52;;;;;;;;;;;20.70;99.90;;;;;;7332622;19;109812;-65
2023/07/21 08:11:19;;;;;;;;;;;20.80;99.90;;;;;;7331113;19;110869;-64
2023/07/21 08:13:46;;;;;;;;;;;20.90;99.90;;;;;;7335234;19;108686;-67
2023/07/21 08:16:15;;;;;;;;;;;21.00;99.90;;;;;;7333743;19;110573;-67
2023/07/21 08:18:42;;;;;;;;;;;21.00;99.90;;;;;;7335394;19;109161;-66
2023/07/21 08:21:19;;;;;;;;;;;21.00;99.90;;;;;;7342451;19;109829;-66
2023/07/21 08:23:46;;;;;;;;;;;21.10;99.90;;;;;;7340488;19;110221;-73
2023/07/21 08:26:13;;;;;;;;;;;21.20;99.90;;;;;;7336967;19;109629;-70
2023/07/21 08:28:41;;;;;;;;;;;21.20;99.90;;;;;;7333541;19;108766;-75
2023/07/21 08:31:09;;;;;;;;;;;21.40;99.90;;;;;;7333249;19;110110;-73
2023/07/21 08:33:36;;;;;;;;;;;21.40;99.90;;;;;;7334953;19;108657;-73
2023/07/21 08:36:05;;;;;;;;;;;21.50;99.90;;;;;;7334581;19;109846;-74
2023/07/21 08:38:36;;;;;;;;;;;21.50;99.90;;;;;;7332579;19;109274;-73
2023/07/21 08:41:07;;;;;;;;;;;21.40;99.90;;;;;;7336299;19;108915;-73
2023/07/21 08:43:35;;;;;;;;;;;21.40;99.90;;;;;;7337606;19;109237;-74
2023/07/21 08:46:06;;;;;;;;;;;21.40;99.90;;;;;;7335458;19;109835;-75
2023/07/21 08:48:34;;;;;;;;;;;21.40;99.90;;;;;;7335715;19;109658;-73
2023/07/21 08:51:03;;;;;;;;;;;21.40;99.90;;;;;;7336999;19;109146;-73
2023/07/21 08:53:30;;;;;;;;;;;21.40;99.90;;;;;;7337429;19;110600;-74
2023/07/21 08:55:59;;;;;;;;;;;21.50;99.90;;;;;;7340749;19;109462;-72
2023/07/21 08:58:27;;;;;;;;;;;21.60;99.90;;;;;;7334601;19;109365;-77
2023/07/21 09:00:56;;;;;;;;;;;21.70;99.90;;;;;;7334825;19;108619;-72
2023/07/21 09:03:25;;;;;;;;;;;21.80;99.90;;;;;;7339977;19;110351;-73
2023/07/21 09:05:54;;;;;;;;;;;22.00;99.90;;;;;;7333198;19;109080;-75
2023/07/21 09:08:22;;;;;;;;;;;22.10;99.90;;;;;;7335550;19;109286;-73
2023/07/21 09:10:50;;;;;;;;;;;22.10;99.90;;;;;;7331353;19;109206;-73
2023/07/21 09:13:17;;;;;;;;;;;22.20;99.90;;;;;;7337240;19;108786;-72
2023/07/21 09:15:51;;;;;;;;;;;22.20;99.90;;;;;;7334869;19;108753;-73
2023/07/21 09:18:23;;;;;;;;;;;22.30;99.90;;;;;;7329828;19;109323;-72
2023/07/21 09:20:53;;;;;;;;;;;22.50;99.90;;;;;;7334974;19;111109;-73
2023/07/21 09:23:21;;;;;;;;;;;22.60;99.90;;;;;;7335205;19;113626;-73
2023/07/21 09:25:53;;;;;;;;;;;22.70;99.90;;;;;;7334024;19;109407;-73
2023/07/21 09:28:37;;;;;;;;;;;22.90;99.90;;;;;;7325782;19;108735;-72
2023/07/21 09:31:04;;;;;;;;;;;23.10;99.90;;;;;;7332591;19;110002;-73
2023/07/21 09:33:37;;;;;;;;;;;23.20;99.90;;;;;;7334174;19;108748;-73
2023/07/21 09:36:09;;;;;;;;;;;23.40;99.90;;;;;;7331332;19;112073;-73
2023/07/21 09:38:39;;;;;;;;;;;23.40;99.90;;;;;;7333099;19;109266;-75
2023/07/21 09:41:07;;;;;;;;;;;23.40;99.90;;;;;;7333504;19;108311;-74
2023/07/21 09:43:35;;;;;;;;;;;23.30;99.90;;;;;;7333070;19;108804;-69
2023/07/21 09:46:03;;;;;;;;;;;23.20;99.90;;;;;;7332381;19;109102;-68
2023/07/21 09:48:44;;;;;;;;;;;23.20;99.90;;;;;;7335753;19;110611;-68
2023/07/21 09:51:12;;;;;;;;;;;23.10;99.90;;;;;;7331716;19;110008;-85
2023/07/21 09:53:40;;;;;;;;;;;23.00;99.90;;;;;;7332345;19;108643;-88
2023/07/21 09:56:08;;;;;;;;;;;22.90;99.90;;;;;;7333422;19;109460;-87
2023/07/21 09:58:58;;;;;;;;;;;22.90;99.90;;;;;;7336029;19;111316;-87
2023/07/21 10:01:25;;;;;;;;;;;22.90;99.90;;;;;;7333356;19;110791;-88
2023/07/21 10:03:54;;;;;;;;;;;22.90;99.90;;;;;;7332728;19;109303;-88
2023/07/21 10:06:22;;;;;;;;;;;22.90;99.90;;;;;;7329975;19;110878;-87
2023/07/21 10:08:50;;;;;;;;;;;22.80;99.90;;;;;;7334831;19;109419;-87
2023/07/21 10:11:18;;;;;;;;;;;22.70;99.90;;;;;;7336768;19;111005;-86
2023/07/21 10:13:46;;;;;;;;;;;22.60;99.90;;;;;;7326847;19;110109;-75
2023/07/21 10:16:14;;;;;;;;;;;22.40;99.90;;;;;;7330291;19;109520;-76
2023/07/21 10:19:00;;;;;;;;;;;22.00;99.90;;;;;;7329326;19;109682;-72
2023/07/21 10:21:31;;;;;;;;;;;21.60;99.90;;;;;;7334721;19;108905;-70
2023/07/21 10:24:03;;;;;;;;;;;21.40;99.90;;;;;;7334938;19;110291;-69
2023/07/21 10:26:30;;;;;;;;;;;21.30;99.90;;;;;;7337867;19;109630;-70
2023/07/21 10:29:13;;;;;;;;;;;21.20;99.90;;;;;;7335474;19;111417;-70
2023/07/21 10:31:49;;;;;;;;;;;21.00;99.90;;;;;;7336379;19;108788;-70
2023/07/21 10:34:17;;;;;;;;;;;20.80;99.90;;;;;;7341986;19;109286;-70
2023/07/21 10:36:53;;;;;;;;;;;20.70;99.90;;;;;;7335301;19;108597;-71
2023/07/21 10:39:42;;;;;;;;;;;20.70;99.90;;;;;;7333917;19;112589;-70
2023/07/21 10:42:10;;;;;;;;;;;20.80;99.90;;;;;;7339021;19;108847;-70
2023/07/21 10:44:38;;;;;;;;;;;20.80;99.90;;;;;;7340082;19;108606;-70
2023/07/21 10:47:11;;;;;;;;;;;20.70;99.90;;;;;;7337548;19;111318;-71
2023/07/21 10:49:38;;;;;;;;;;;20.60;99.90;;;;;;7339176;19;109248;-70
2023/07/21 10:52:06;;;;;;;;;;;20.30;99.90;;;;;;7335011;19;109088;-70
2023/07/21 10:54:34;;;;;;;;;;;20.20;99.90;;;;;;7337820;19;109091;-70
2023/07/21 10:57:02;;;;;;;;;;;20.00;99.90;;;;;;7341467;19;109105;-72
2023/07/21 10:59:31;;;;;;;;;;;19.90;99.90;;;;;;7336066;19;110056;-70
2023/07/21 11:01:59;;;;;;;;;;;19.80;99.90;;;;;;7339336;19;108870;-70
2023/07/21 11:04:26;;;;;;;;;;;19.70;99.90;;;;;;7337176;19;109120;-70
2023/07/21 11:06:55;;;;;;;;;;;19.60;99.90;;;;;;7339812;19;109151;-70
2023/07/21 11:09:22;;;;;;;;;;;19.50;99.90;;;;;;7338885;19;108909;-71
2023/07/21 11:11:51;;;;;;;;;;;19.40;99.90;;;;;;7340542;19;108655;-70
2023/07/21 11:14:23;;;;;;;;;;;19.30;99.90;;;;;;7337116;19;109117;-70
2023/07/21 11:16:55;;;;;;;;;;;19.40;99.90;;;;;;7345071;19;108794;-71
2023/07/21 11:19:23;;;;;;;;;;;19.50;99.90;;;;;;7335920;19;109690;-70
2023/07/21 11:21:51;;;;;;;;;;;19.50;99.90;;;;;;7338136;19;108750;-70
2023/07/21 11:24:25;;;;;;;;;;;19.60;99.90;;;;;;7337252;19;108555;-70
2023/07/21 11:26:53;;;;;;;;;;;19.80;99.90;;;;;;7338805;19;109625;-70
2023/07/21 11:29:20;;;;;;;;;;;20.00;99.90;;;;;;7337175;19;109838;-70
2023/07/21 11:31:48;;;;;;;;;;;20.10;99.90;;;;;;7337184;19;108606;-71
2023/07/21 11:34:18;;;;;;;;;;;20.20;99.90;;;;;;7336702;19;112781;-70
2023/07/21 11:36:48;;;;;;;;;;;20.30;99.90;;;;;;7338356;19;113020;-70
2023/07/21 11:39:19;;;;;;;;;;;20.30;99.90;;;;;;7343576;19;109225;-70
2023/07/21 11:41:48;;;;;;;;;;;20.50;99.90;;;;;;7336333;19;108752;-70
2023/07/21 11:44:20;;;;;;;;;;;20.60;99.90;;;;;;7337359;19;108741;-71
2023/07/21 11:46:58;;;;;;;;;;;20.70;99.90;;;;;;7333426;19;111032;-70
2023/07/21 11:49:28;;;;;;;;;;;20.90;99.90;;;;;;7334694;19;109350;-70
2023/07/21 11:52:02;;;;;;;;;;;21.00;99.90;;;;;;7336488;19;108777;-70
2023/07/21 11:54:35;;;;;;;;;;;21.10;99.90;;;;;;7334727;19;109935;-70
2023/07/21 11:57:02;;;;;;;;;;;21.20;99.90;;;;;;7339028;19;108552;-69
2023/07/21 11:59:29;;;;;;;;;;;21.20;99.90;;;;;;7335376;19;108619;-68
2023/07/21 12:01:57;;;;;;;;;;;21.20;99.90;;;;;;7342853;19;110247;-68
2023/07/21 12:04:24;;;;;;;;;;;21.10;99.90;;;;;;7334449;19;109557;-68
2023/07/21 12:06:54;;;;;;;;;;;21.00;99.90;;;;;;7336453;19;110160;-69
2023/07/21 12:09:21;;;;;;;;;;;20.90;99.90;;;;;;7337407;19;108619;-68
2023/07/21 12:11:49;;;;;;;;;;;20.80;99.90;;;;;;7338247;19;108646;-68
2023/07/21 12:14:16;;;;;;;;;;;20.70;99.90;;;;;;7333812;19;111615;-68
2023/07/21 12:16:45;;;;;;;;;;;20.60;99.90;;;;;;7335226;19;108466;-68
2023/07/21 12:19:13;;;;;;;;;;;20.60;99.90;;;;;;7337036;19;109743;-69
2023/07/21 12:21:41;;;;;;;;;;;20.50;99.90;;;;;;7337871;19;109146;-68
2023/07/21 12:24:13;;;;;;;;;;;20.50;99.90;;;;;;7338773;19;108493;-68
2023/07/21 12:26:40;;;;;;;;;;;20.50;99.90;;;;;;7337773;19;109564;-67
2023/07/21 12:29:07;;;;;;;;;;;20.60;99.90;;;;;;7335559;19;108617;-68
2023/07/21 12:31:35;;;;;;;;;;;20.50;99.90;;;;;;7335305;19;109443;-68
2023/07/21 12:34:02;;;;;;;;;;;20.60;99.90;;;;;;7336056;19;109619;-68
2023/07/21 12:36:29;;;;;;;;;;;20.60;99.90;;;;;;7335964;19;110906;-68
2023/07/21 12:38:57;;;;;;;;;;;20.70;99.90;;;;;;7336879;19;109549;-68
2023/07/21 12:41:24;;;;;;;;;;;20.80;99.90;;;;;;7335702;19;109217;-69
2023/07/21 12:43:51;;;;;;;;;;;20.80;99.90;;;;;;7333824;19;109391;-68
2023/07/21 12:46:19;;;;;;;;;;;20.90;99.90;;;;;;7341886;19;110367;-68
2023/07/21 12:48:46;;;;;;;;;;;20.90;99.90;;;;;;7337244;19;108976;-68
2023/07/21 12:51:14;;;;;;;;;;;21.00;99.90;;;;;;7335945;19;109284;-68
2023/07/21 12:53:41;;;;;;;;;;;21.10;99.90;;;;;;7335862;19;109121;-68
2023/07/21 12:56:08;;;;;;;;;;;21.20;99.90;;;;;;7336421;19;108704;-68
2023/07/21 12:58:35;;;;;;;;;;;21.30;99.90;;;;;;7335095;19;109338;-68
2023/07/21 13:01:02;;;;;;;;;;;21.50;99.90;;;;;;7335235;19;110229;-68
2023/07/21 13:03:29;;;;;;;;;;;21.50;99.90;;;;;;7335315;19;109420;-68
2023/07/21 13:05:57;;;;;;;;;;;21.50;99.90;;;;;;7342096;19;108431;-68
2023/07/21 13:08:24;;;;;;;;;;;21.50;99.90;;;;;;7334663;19;109035;-68
2023/07/21 13:10:52;;;;;;;;;;;21.40;99.90;;;;;;7337345;19;108696;-68
2023/07/21 13:13:19;;;;;;;;;;;21.40;99.90;;;;;;7335757;19;109395;-68
2023/07/21 13:15:46;;;;;;;;;;;21.40;99.90;;;;;;7335466;19;108505;-67
2023/07/21 13:18:13;;;;;;;;;;;21.30;99.90;;;;;;7334545;19;108795;-67
2023/07/21 13:20:41;;;;;;;;;;;21.30;99.90;;;;;;7334627;19;111016;-66
2023/07/21 13:23:08;;;;;;;;;;;21.20;99.90;;;;;;7336959;19;109031;-66
2023/07/21 13:25:47;;;;;;;;;;;21.20;99.90;;;;;;7333780;19;109024;-67
2023/07/21 13:28:14;;;;;;;;;;;21.30;99.90;;;;;;7341587;19;110245;-66
2023/07/21 13:30:41;;;;;;;;;;;21.30;99.90;;;;;;7334219;19;108609;-67
2023/07/21 13:33:11;;;;;;;;;;;21.40;99.90;;;;;;7333760;19;109949;-68
2023/07/21 13:35:39;;;;;;;;;;;21.70;99.90;;;;;;7335175;19;109735;-66
2023/07/21 13:38:06;;;;;;;;;;;21.90;99.90;;;;;;7333158;19;109713;-68
2023/07/21 13:40:33;;;;;;;;;;;22.20;99.90;;;;;;7334338;19;110251;-67
2023/07/21 13:43:00;;;;;;;;;;;22.40;99.90;;;;;;7333206;19;109007;-67
2023/07/21 13:45:27;;;;;;;;;;;22.40;99.90;;;;;;7334659;19;108894;-67
2023/07/21 13:47:54;;;;;;;;;;;22.50;99.90;;;;;;7333806;19;109186;-67
2023/07/21 13:50:21;;;;;;;;;;;22.60;99.90;;;;;;7337580;19;110434;-67
2023/07/21 13:52:48;;;;;;;;;;;22.70;99.90;;;;;;7333348;19;109795;-66
2023/07/21 13:55:16;;;;;;;;;;;22.60;99.90;;;;;;7333073;19;113908;-68
2023/07/21 13:57:43;;;;;;;;;;;22.60;99.90;;;;;;7335645;19;109880;-67
2023/07/21 14:00:18;;;;;;;;;;;22.90;99.90;;;;;;7334255;19;109797;-69
2023/07/21 14:02:47;;;;;;;;;;;22.90;99.90;;;;;;7334706;19;108756;-66
2023/07/21 14:05:14;;;;;;;;;;;23.20;99.90;;;;;;7334768;19;108541;-66
2023/07/21 14:07:44;;;;;;;;;;;23.40;99.90;;;;;;7332584;19;108950;-66
2023/07/21 14:10:12;;;;;;;;;;;23.60;99.90;;;;;;7332063;19;110427;-66